Time;durP1;ratioP1;P1;durP2;ratioP2;P2;SDS_P1;SDS_P2;PMS_P1;PMS_P2;Temp;Humidity;BMP_temperature;BMP_pressure;BME280_temperature;BME280_humidity;BME280_pressure;Samples;Min_cycle;Max_cycle;Signal;HPM_P1;HPM_P2
2022/05/02 00:01:48;;;;;;;13.90;9.80;;;5.70;99.90;;;;;;4934403;29;20130;-63
2022/05/02 00:04:14;;;;;;;15.10;9.80;;;5.60;99.90;;;;;;4966454;23;20042;-63
2022/05/02 00:06:39;;;;;;;14.82;10.45;;;5.50;99.90;;;;;;4974497;28;20138;-63
2022/05/02 00:09:06;;;;;;;17.63;10.38;;;5.40;99.90;;;;;;4969084;28;20046;-63
2022/05/02 00:11:31;;;;;;;14.50;10.20;;;5.40;99.90;;;;;;4967013;28;20504;-63
2022/05/02 00:13:57;;;;;;;14.02;10.07;;;5.30;99.90;;;;;;4964128;28;20073;-63
2022/05/02 00:16:22;;;;;;;15.77;11.00;;;5.30;99.90;;;;;;4955601;28;20043;-63
2022/05/02 00:18:48;;;;;;;15.45;10.52;;;5.20;99.90;;;;;;4947496;28;20434;-63
2022/05/02 00:21:13;;;;;;;15.38;10.88;;;5.30;99.90;;;;;;4946232;29;20066;-63
2022/05/02 00:23:39;;;;;;;14.55;10.32;;;5.30;99.90;;;;;;4954577;28;20043;-63
2022/05/02 00:26:04;;;;;;;16.35;11.48;;;5.30;99.90;;;;;;4951941;28;20035;-63
2022/05/02 00:28:30;;;;;;;16.35;10.15;;;5.30;99.90;;;;;;4952016;29;20075;-63
2022/05/02 00:30:55;;;;;;;16.98;10.50;;;5.30;99.90;;;;;;4953882;29;20090;-64
2022/05/02 00:33:21;;;;;;;18.20;11.35;;;5.20;99.90;;;;;;4955084;28;20074;-63
2022/05/02 00:35:46;;;;;;;15.68;10.50;;;5.10;99.90;;;;;;4944485;28;20118;-63
2022/05/02 00:38:12;;;;;;;16.73;10.57;;;5.10;99.90;;;;;;4951348;28;20035;-63
2022/05/02 00:40:38;;;;;;;15.88;11.05;;;5.10;99.90;;;;;;4954915;28;20043;-63
2022/05/02 00:43:04;;;;;;;17.90;11.57;;;5.00;99.90;;;;;;4946600;28;20031;-63
2022/05/02 00:45:37;;;;;;;16.10;11.23;;;5.00;99.90;;;;;;4945250;29;20043;-63
2022/05/02 00:48:03;;;;;;;17.23;11.10;;;5.00;99.90;;;;;;4955109;28;20494;-63
2022/05/02 00:50:33;;;;;;;16.05;11.05;;;5.00;99.90;;;;;;4952047;28;20050;-63
2022/05/02 00:52:58;;;;;;;13.55;9.30;;;4.90;99.90;;;;;;4952215;29;20637;-63
2022/05/02 00:55:24;;;;;;;8.52;5.82;;;4.90;99.90;;;;;;4954670;28;20031;-63
2022/05/02 00:57:50;;;;;;;11.02;7.47;;;4.80;99.90;;;;;;4950143;28;20602;-63
2022/05/02 01:00:16;;;;;;;12.10;8.02;;;4.70;99.90;;;;;;4943217;29;20039;-63
2022/05/02 01:02:41;;;;;;;11.07;8.57;;;4.60;99.90;;;;;;4953795;28;20133;-63
2022/05/02 01:05:07;;;;;;;17.13;10.07;;;4.60;99.90;;;;;;4954344;29;20035;-63
2022/05/02 01:07:32;;;;;;;13.88;9.95;;;4.50;99.90;;;;;;4951657;28;20103;-63
2022/05/02 01:09:58;;;;;;;16.85;10.73;;;4.50;99.90;;;;;;4946119;29;20042;-63
2022/05/02 01:12:25;;;;;;;9.30;6.90;;;4.50;99.90;;;;;;4952817;28;20043;-63
2022/05/02 01:14:56;;;;;;;9.35;6.38;;;4.50;99.90;;;;;;4954464;28;20402;-63
2022/05/02 01:17:21;;;;;;;10.85;7.70;;;4.50;99.90;;;;;;4939326;28;20410;-63
2022/05/02 01:19:47;;;;;;;12.02;8.20;;;4.50;99.90;;;;;;4952318;29;20043;-63
2022/05/02 01:22:13;;;;;;;12.93;8.88;;;4.40;99.90;;;;;;4954137;28;20047;-63
2022/05/02 01:24:45;;;;;;;16.02;10.18;;;4.40;99.90;;;;;;4944145;29;20051;-63
2022/05/02 01:27:12;;;;;;;18.58;10.45;;;4.40;99.90;;;;;;4954041;28;20433;-63
2022/05/02 01:29:40;;;;;;;16.70;10.82;;;4.40;99.90;;;;;;4954312;28;20043;-63
2022/05/02 01:32:09;;;;;;;15.73;9.10;;;4.40;99.90;;;;;;4940410;28;20111;-63
2022/05/02 01:34:36;;;;;;;16.65;10.65;;;4.30;99.90;;;;;;4941978;28;20036;-63
2022/05/02 01:37:03;;;;;;;20.00;11.75;;;4.30;99.90;;;;;;4946231;29;20039;-63
2022/05/02 01:39:29;;;;;;;17.13;11.13;;;4.20;99.90;;;;;;4954147;28;20043;-63
2022/05/02 01:42:05;;;;;;;19.30;11.57;;;4.30;99.90;;;;;;4950553;28;20082;-63
2022/05/02 01:44:31;;;;;;;17.42;10.95;;;4.20;99.90;;;;;;4945299;28;20525;-63
2022/05/02 01:46:57;;;;;;;18.20;10.85;;;4.20;99.90;;;;;;4953573;28;20043;-63
2022/05/02 01:49:23;;;;;;;18.08;9.85;;;4.10;99.90;;;;;;4944236;28;20072;-63
2022/05/02 01:51:49;;;;;;;58.97;5.93;;;4.10;99.90;;;;;;4944134;29;20051;-63
2022/05/02 01:54:15;;;;;;;97.47;6.32;;;4.00;99.90;;;;;;4953382;28;20402;-63
2022/05/02 01:56:41;;;;;;;64.93;5.88;;;3.90;99.90;;;;;;4953978;28;20054;-63
2022/05/02 01:59:07;;;;;;;25.27;5.95;;;3.90;99.90;;;;;;4950468;28;20035;-63
2022/05/02 02:01:33;;;;;;;11.85;6.53;;;3.80;99.90;;;;;;4952618;29;20043;-63
2022/05/02 02:04:00;;;;;;;12.48;8.13;;;3.80;99.90;;;;;;4953038;29;20062;-63
2022/05/02 02:06:26;;;;;;;11.07;7.15;;;3.80;99.90;;;;;;4940381;28;20032;-63
2022/05/02 02:08:52;;;;;;;12.90;9.25;;;3.90;99.90;;;;;;4935228;29;20115;-63
2022/05/02 02:11:18;;;;;;;19.08;11.63;;;3.90;99.90;;;;;;4953501;29;20047;-63
2022/05/02 02:13:43;;;;;;;18.25;11.70;;;3.90;99.90;;;;;;4950505;28;20094;-63
2022/05/02 02:16:13;;;;;;;16.65;10.90;;;4.00;99.90;;;;;;4940942;29;20386;-63
2022/05/02 02:18:40;;;;;;;16.83;10.98;;;3.90;99.90;;;;;;4953226;28;20498;-63
2022/05/02 02:21:09;;;;;;;16.60;11.15;;;3.90;99.90;;;;;;4953903;28;20047;-63
2022/05/02 02:23:36;;;;;;;25.15;8.60;;;3.90;99.90;;;;;;4938821;28;20043;-63
2022/05/02 02:26:04;;;;;;;59.05;9.35;;;3.90;99.90;;;;;;4944048;29;20043;-63
2022/05/02 02:28:30;;;;;;;47.05;8.45;;;3.80;99.90;;;;;;4953258;28;20075;-63
2022/05/02 02:30:55;;;;;;;66.72;7.07;;;3.70;99.90;;;;;;4941962;28;20047;-63
2022/05/02 02:33:21;;;;;;;18.42;10.45;;;3.60;99.90;;;;;;4941352;29;20070;-63
2022/05/02 02:35:46;;;;;;;16.70;10.35;;;3.50;99.90;;;;;;4953397;28;20066;-63
2022/05/02 02:38:15;;;;;;;19.50;12.65;;;3.60;99.90;;;;;;4953311;28;20044;-63
2022/05/02 02:40:41;;;;;;;23.13;13.82;;;3.60;99.90;;;;;;4947116;28;20296;-63
2022/05/02 02:43:09;;;;;;;20.17;13.10;;;3.70;99.90;;;;;;4949144;29;20643;-63
2022/05/02 02:45:34;;;;;;;23.63;14.02;;;3.70;99.90;;;;;;4956758;28;20124;-63
2022/05/02 02:48:00;;;;;;;20.50;13.10;;;3.70;99.90;;;;;;4954560;28;20633;-63
2022/05/02 02:50:26;;;;;;;19.90;13.27;;;3.80;99.90;;;;;;4942305;29;20372;-63
2022/05/02 02:52:51;;;;;;;20.08;12.88;;;3.80;99.90;;;;;;4955162;29;20498;-63
2022/05/02 02:55:17;;;;;;;19.02;12.25;;;3.70;99.90;;;;;;4953770;28;20162;-63
2022/05/02 02:57:42;;;;;;;19.73;11.02;;;3.70;99.90;;;;;;4949455;29;20126;-63
2022/05/02 03:00:09;;;;;;;16.63;10.25;;;3.70;99.90;;;;;;4956366;28;20397;-63
2022/05/02 03:02:40;;;;;;;19.40;9.63;;;3.70;99.90;;;;;;4957119;28;20041;-63
2022/05/02 03:07:50;;;;;;;198.13;12.68;;;3.60;99.90;;;;;;4955151;29;20043;-63
2022/05/02 03:10:17;;;;;;;56.60;9.45;;;3.50;99.90;;;;;;4956878;28;20035;-64
2022/05/02 03:12:42;;;;;;;110.50;11.88;;;3.40;99.90;;;;;;4938264;28;20110;-64
2022/05/02 03:15:08;;;;;;;27.25;10.32;;;3.40;99.90;;;;;;4951204;28;20047;-64
2022/05/02 03:17:34;;;;;;;22.95;13.93;;;3.40;99.90;;;;;;4956263;29;20043;-63
2022/05/02 03:19:59;;;;;;;24.55;15.30;;;3.40;99.90;;;;;;4956932;28;20122;-63
2022/05/02 03:22:25;;;;;;;25.83;15.85;;;3.40;99.90;;;;;;4949299;28;20099;-63
2022/05/02 03:24:51;;;;;;;25.05;14.25;;;3.40;99.90;;;;;;4942212;29;20071;-63
2022/05/02 03:27:16;;;;;;;22.95;14.05;;;3.40;99.90;;;;;;4955941;28;20733;-63
2022/05/02 03:29:42;;;;;;;127.00;13.50;;;3.40;99.90;;;;;;4942973;28;20174;-63
2022/05/02 03:32:08;;;;;;;20.65;12.48;;;3.30;99.90;;;;;;4943570;28;20035;-63
2022/05/02 03:34:33;;;;;;;20.70;10.35;;;3.20;99.90;;;;;;4954053;29;20047;-63
2022/05/02 03:36:59;;;;;;;20.33;12.63;;;3.20;99.90;;;;;;4955159;28;20035;-63
2022/05/02 03:39:24;;;;;;;21.42;13.02;;;3.10;99.90;;;;;;4945612;28;20040;-63
2022/05/02 03:41:50;;;;;;;19.27;12.38;;;3.10;99.90;;;;;;4954880;29;20039;-63
2022/05/02 03:44:16;;;;;;;22.20;13.40;;;3.00;99.90;;;;;;4955720;28;20054;-64
2022/05/02 03:46:41;;;;;;;23.33;14.85;;;3.00;99.90;;;;;;4945710;28;20043;-63
2022/05/02 03:49:07;;;;;;;26.05;14.15;;;2.90;99.90;;;;;;4940603;29;20047;-63
2022/05/02 03:51:33;;;;;;;24.63;14.68;;;2.90;99.90;;;;;;4955526;28;20058;-63
2022/05/02 03:53:59;;;;;;;20.73;14.02;;;2.90;99.90;;;;;;4953500;28;20051;-64
2022/05/02 03:56:25;;;;;;;24.73;15.00;;;2.90;99.90;;;;;;4948736;28;20404;-63
2022/05/02 03:58:51;;;;;;;23.02;15.32;;;2.90;99.90;;;;;;4950934;29;20050;-63
2022/05/02 04:01:18;;;;;;;20.85;13.23;;;2.90;99.90;;;;;;4955416;28;20304;-64
2022/05/02 04:03:43;;;;;;;23.05;14.05;;;2.90;99.90;;;;;;4945728;28;20040;-63
2022/05/02 04:06:09;;;;;;;25.02;14.00;;;2.80;99.90;;;;;;4954272;28;20042;-64
2022/05/02 04:08:35;;;;;;;23.27;13.95;;;2.90;99.90;;;;;;4954580;28;20039;-63
2022/05/02 04:11:01;;;;;;;22.75;14.60;;;2.90;99.90;;;;;;4950419;28;20094;-63
2022/05/02 04:13:26;;;;;;;24.17;15.23;;;3.00;99.90;;;;;;4954401;28;20482;-63
2022/05/02 04:15:52;;;;;;;26.30;15.43;;;3.00;99.90;;;;;;4955322;28;20085;-63
2022/05/02 04:18:17;;;;;;;28.17;14.45;;;3.00;99.90;;;;;;4955739;28;20079;-63
2022/05/02 04:20:43;;;;;;;24.88;14.80;;;3.10;99.90;;;;;;4949071;28;20062;-63
2022/05/02 04:23:09;;;;;;;27.40;15.45;;;3.10;99.90;;;;;;4948006;29;20081;-63
2022/05/02 04:25:34;;;;;;;24.77;13.65;;;3.10;99.90;;;;;;4955259;29;20039;-63
2022/05/02 04:28:00;;;;;;;23.70;13.52;;;3.10;99.90;;;;;;4945820;28;20078;-63
2022/05/02 04:30:25;;;;;;;23.00;14.63;;;3.10;99.90;;;;;;4947143;29;20070;-63
2022/05/02 04:32:51;;;;;;;22.13;13.52;;;3.10;99.90;;;;;;4954835;28;20043;-63
2022/05/02 04:35:17;;;;;;;23.88;14.50;;;3.10;99.90;;;;;;4949561;28;20526;-63
2022/05/02 04:37:42;;;;;;;22.27;14.15;;;3.10;99.90;;;;;;4944076;29;20174;-63
2022/05/02 04:40:08;;;;;;;25.80;15.77;;;3.10;99.90;;;;;;4940487;28;20040;-63
2022/05/02 04:42:34;;;;;;;27.33;15.60;;;3.10;99.90;;;;;;4944399;29;20043;-63
2022/05/02 04:44:59;;;;;;;24.70;14.52;;;3.20;99.90;;;;;;4954619;28;20039;-63
2022/05/02 04:47:25;;;;;;;23.75;15.07;;;3.20;99.90;;;;;;4954975;28;20035;-63
2022/05/02 04:49:50;;;;;;;24.13;15.02;;;3.20;99.90;;;;;;4943246;28;20040;-63
2022/05/02 04:52:16;;;;;;;25.00;15.38;;;3.20;99.90;;;;;;4943466;28;20462;-63
2022/05/02 04:54:41;;;;;;;26.80;14.93;;;3.20;99.90;;;;;;4939895;29;20095;-63
2022/05/02 04:57:07;;;;;;;24.88;14.65;;;3.20;99.90;;;;;;4954789;28;20039;-63
2022/05/02 04:59:32;;;;;;;30.92;15.32;;;3.20;99.90;;;;;;4937134;28;20079;-63
2022/05/02 05:01:58;;;;;;;22.63;14.43;;;3.20;99.90;;;;;;4952109;28;20038;-63
2022/05/02 05:04:24;;;;;;;28.88;16.02;;;3.30;99.90;;;;;;4939169;28;20174;-63
2022/05/02 05:06:50;;;;;;;29.02;16.15;;;3.30;99.90;;;;;;4950351;28;20043;-63
2022/05/02 05:09:16;;;;;;;32.65;16.85;;;3.40;99.90;;;;;;4940309;28;20114;-63
2022/05/02 05:12:05;;;;;;;27.27;15.63;;;3.50;99.90;;;;;;4951911;28;20031;-63
2022/05/02 05:18:05;;;;;;;27.08;14.23;;;3.70;99.90;;;;;;4968185;28;20055;-63
2022/05/02 05:20:59;;;;;;;21.95;14.02;;;3.80;99.90;;;;;;4950983;28;20062;-63
2022/05/02 05:23:33;;;;;;;26.50;15.05;;;3.90;99.90;;;;;;4941396;28;20099;-63
2022/05/02 05:26:29;;;;;;;26.88;15.93;;;4.00;99.90;;;;;;4942113;28;20043;-63
2022/05/02 05:29:08;;;;;;;27.52;16.45;;;4.10;99.90;;;;;;4952964;28;20054;-63
2022/05/02 05:31:47;;;;;;;26.52;16.13;;;4.10;99.90;;;;;;4958976;28;20054;-63
2022/05/02 05:34:26;;;;;;;25.00;15.50;;;4.20;99.90;;;;;;4943989;28;20039;-63
2022/05/02 05:37:21;;;;;;;29.38;16.40;;;4.40;99.90;;;;;;4954462;28;20450;-63
2022/05/02 05:39:56;;;;;;;31.63;18.25;;;4.50;99.90;;;;;;4941667;28;20039;-63
2022/05/02 05:42:35;;;;;;;32.63;18.75;;;4.70;99.90;;;;;;4944139;28;20071;-63
2022/05/02 05:45:19;;;;;;;32.00;17.75;;;4.90;99.90;;;;;;4947081;28;20505;-63
2022/05/02 05:47:56;;;;;;;30.73;17.63;;;5.00;99.90;;;;;;4957729;28;20055;-63
2022/05/02 05:50:30;;;;;;;31.52;17.38;;;5.20;99.90;;;;;;4956098;28;20704;-65
2022/05/02 05:53:30;;;;;;;33.70;18.17;;;5.30;99.90;;;;;;4946455;28;20051;-63
2022/05/02 05:56:17;;;;;;;34.92;19.25;;;5.50;99.90;;;;;;4963060;28;20645;-64
2022/05/02 05:59:03;;;;;;;33.83;18.92;;;5.70;99.90;;;;;;4944599;28;20058;-63
2022/05/02 06:01:30;;;;;;;28.08;17.90;;;5.80;99.90;;;;;;4942057;28;20082;-64
2022/05/02 06:14:21;;;;;;;30.85;18.05;;;6.60;99.90;;;;;;5660153;23;20047;-63
2022/05/02 06:19:33;;;;;;;30.08;18.70;;;6.80;99.90;;;;;;4973507;28;20055;-65
2022/05/02 06:22:01;;;;;;;29.17;17.38;;;7.00;99.90;;;;;;4972404;28;20058;-66
2022/05/02 06:24:30;;;;;;;31.35;19.00;;;7.10;99.90;;;;;;4959785;28;20043;-62
2022/05/02 06:26:58;;;;;;;28.77;18.15;;;7.20;99.90;;;;;;4942393;29;20122;-63
2022/05/02 06:29:24;;;;;;;31.77;18.40;;;7.30;99.90;;;;;;4953179;29;20038;-64
2022/05/02 06:31:54;;;;;;;31.13;19.30;;;7.40;99.90;;;;;;4953553;28;20062;-62
2022/05/02 06:34:26;;;;;;;28.67;18.73;;;7.50;99.90;;;;;;4946278;28;20126;-64
2022/05/02 06:37:31;;;;;;;29.50;18.77;;;7.60;99.90;;;;;;4951289;29;20051;-63
2022/05/02 06:40:21;;;;;;;30.25;18.42;;;7.70;99.90;;;;;;4953315;28;20057;-62
2022/05/02 06:43:03;;;;;;;29.30;17.17;;;7.90;99.90;;;;;;4940200;28;20039;-63
2022/05/02 06:45:31;;;;;;;29.33;17.58;;;8.00;99.90;;;;;;4948429;29;20043;-63
2022/05/02 06:48:35;;;;;;;28.02;18.13;;;8.10;99.90;;;;;;4950942;29;20089;-62
2022/05/02 06:51:06;;;;;;;28.13;18.45;;;8.20;99.90;;;;;;4934622;28;20039;-63
2022/05/02 06:54:05;;;;;;;29.52;18.90;;;8.40;99.90;;;;;;4948398;29;20035;-64
2022/05/02 06:56:45;;;;;;;28.38;17.75;;;8.60;99.90;;;;;;4932046;29;20071;-63
2022/05/02 06:59:17;;;;;;;27.52;17.98;;;8.70;99.90;;;;;;4949225;29;20057;-63
2022/05/02 07:01:50;;;;;;;28.05;18.10;;;8.80;99.90;;;;;;4952433;29;20486;-63
2022/05/02 07:04:25;;;;;;;29.75;18.95;;;8.90;99.90;;;;;;4952686;28;20482;-68
2022/05/02 07:07:19;;;;;;;26.98;17.25;;;9.10;99.90;;;;;;4946991;29;20114;-64
2022/05/02 07:09:53;;;;;;;30.75;17.65;;;9.20;99.90;;;;;;4952145;29;20043;-64
2022/05/02 07:12:28;;;;;;;25.75;17.00;;;9.30;99.90;;;;;;4946727;29;20126;-63
2022/05/02 07:15:08;;;;;;;25.15;17.35;;;9.50;99.90;;;;;;4937778;29;20095;-64
2022/05/02 07:17:42;;;;;;;28.38;17.08;;;9.60;99.90;;;;;;4952594;29;20102;-64
2022/05/02 07:20:17;;;;;;;25.58;16.52;;;9.70;99.90;;;;;;4944545;29;20138;-64
2022/05/02 07:22:45;;;;;;;27.05;16.67;;;9.80;99.90;;;;;;4939201;29;20043;-64
2022/05/02 07:25:13;;;;;;;22.73;15.02;;;9.90;99.90;;;;;;4943323;28;20438;-65
2022/05/02 07:27:53;;;;;;;26.33;16.65;;;10.10;99.90;;;;;;4953119;28;20089;-64
2022/05/02 07:30:23;;;;;;;28.00;17.30;;;10.20;99.90;;;;;;4951571;28;20050;-64
2022/05/02 07:32:53;;;;;;;26.30;16.77;;;10.30;99.90;;;;;;4954574;28;20058;-64
2022/05/02 07:35:21;;;;;;;22.15;15.70;;;10.40;99.90;;;;;;4956365;28;20054;-64
2022/05/02 07:37:47;;;;;;;27.67;15.80;;;10.50;99.90;;;;;;4956022;28;20534;-64
2022/05/02 07:40:17;;;;;;;25.00;15.85;;;10.50;99.90;;;;;;4936683;28;20040;-64
2022/05/02 07:42:44;;;;;;;25.25;15.40;;;10.60;99.90;;;;;;4934424;29;20118;-64
2022/05/02 07:45:10;;;;;;;22.88;15.35;;;10.70;99.90;;;;;;4940992;28;20038;-64
2022/05/02 07:47:37;;;;;;;28.00;15.82;;;10.80;99.90;;;;;;4949938;29;20409;-64
2022/05/02 07:50:06;;;;;;;26.17;15.75;;;10.90;99.90;;;;;;4953075;29;20082;-64
2022/05/02 07:52:36;;;;;;;21.20;15.90;;;10.90;99.90;;;;;;4945481;28;20043;-64
2022/05/02 07:55:03;;;;;;;23.38;15.40;;;11.10;99.90;;;;;;4945849;29;20043;-64
2022/05/02 07:57:33;;;;;;;19.88;14.27;;;11.30;99.90;;;;;;4940718;28;20039;-64
2022/05/02 08:00:00;;;;;;;20.63;14.00;;;11.30;99.90;;;;;;4954902;29;20043;-64
2022/05/02 08:02:26;;;;;;;19.70;14.23;;;11.40;99.90;;;;;;4955745;28;20733;-64
2022/05/02 08:04:55;;;;;;;21.98;14.32;;;11.50;99.90;;;;;;4952655;28;20039;-64
2022/05/02 08:07:33;;;;;;;20.83;13.88;;;11.60;99.90;;;;;;4947496;28;20027;-64
2022/05/02 08:10:02;;;;;;;20.98;12.38;;;11.60;99.90;;;;;;4955356;28;20054;-64
2022/05/02 08:12:40;;;;;;;20.67;12.18;;;11.70;99.90;;;;;;4950028;28;20649;-64
2022/05/02 08:15:24;;;;;;;15.48;10.82;;;11.80;99.90;;;;;;4943411;29;20397;-64
2022/05/02 08:18:30;;;;;;;18.58;11.73;;;12.00;99.90;;;;;;4955085;29;20501;-64
2022/05/02 08:21:09;;;;;;;19.58;11.63;;;12.10;99.90;;;;;;4920110;29;20048;-64
2022/05/02 08:29:48;;;;;;;17.38;11.15;;;12.30;99.90;;;;;;4944528;29;19957;-64
2022/05/02 08:32:19;;;;;;;17.65;10.63;;;12.50;99.90;;;;;;4947863;28;20114;-64
2022/05/02 08:34:45;;;;;;;;;;;12.60;99.90;;;;;;4954898;29;20094;-64
2022/05/02 08:37:45;;;;;;;17.10;10.27;;;12.70;99.90;;;;;;4949727;28;20333;-64
2022/05/02 08:40:20;;;;;;;16.52;9.80;;;12.80;99.90;;;;;;4947311;28;20058;-64
2022/05/02 08:43:12;;;;;;;15.88;9.95;;;12.80;99.90;;;;;;4954256;28;20379;-64
2022/05/02 08:46:15;;;;;;;17.00;9.73;;;13.00;99.90;;;;;;4948604;28;20953;-64
2022/05/02 08:52:11;;;;;;;12.65;8.80;;;12.90;99.90;;;;;;4954958;29;20051;-64
2022/05/02 08:55:03;;;;;;;12.57;8.73;;;12.90;99.90;;;;;;4950739;28;20047;-64
2022/05/02 08:57:56;;;;;;;14.63;9.60;;;13.00;99.90;;;;;;4946732;28;20054;-64
2022/05/02 09:01:07;;;;;;;14.07;9.25;;;13.10;99.90;;;;;;4949110;29;20433;-64
2022/05/02 09:03:58;;;;;;;18.38;10.60;;;13.20;99.90;;;;;;4942387;28;20067;-64
2022/05/02 09:07:05;;;;;;;14.95;10.32;;;13.30;99.90;;;;;;4949519;29;20043;-64
2022/05/02 09:09:42;;;;;;;20.25;10.73;;;13.50;99.90;;;;;;4935643;29;20039;-64
2022/05/02 09:12:32;;;;;;;18.02;11.13;;;13.50;99.90;;;;;;4937376;29;20604;-64
2022/05/02 09:15:06;;;;;;;15.57;10.57;;;13.50;99.60;;;;;;4951405;28;20039;-64
2022/05/02 09:18:02;;;;;;;13.30;8.45;;;13.50;99.90;;;;;;4954343;28;20529;-64
2022/05/02 09:20:59;;;;;;;15.80;9.30;;;13.60;99.90;;;;;;4937581;28;20035;-62
2022/05/02 09:23:32;;;;;;;13.10;8.80;;;13.60;99.90;;;;;;4948750;29;20478;-65
2022/05/02 09:26:08;;;;;;;16.13;10.07;;;13.70;99.30;;;;;;4953427;28;20042;-64
2022/05/02 09:29:06;;;;;;;13.80;9.27;;;13.70;99.90;;;;;;4950275;28;20131;-64
2022/05/02 09:32:06;;;;;;;14.23;9.02;;;13.50;99.60;;;;;;4949801;29;20047;-64
2022/05/02 09:34:53;;;;;;;13.05;8.73;;;13.50;99.90;;;;;;4934961;29;20040;-66
2022/05/02 09:37:35;;;;;;;14.15;9.60;;;13.80;99.90;;;;;;4946497;29;20047;-66
2022/05/02 09:40:17;;;;;;;15.05;9.55;;;13.90;99.90;;;;;;4945668;29;20043;-64
2022/05/02 09:49:33;;;;;;;13.32;9.20;;;14.00;99.90;;;;;;4953793;28;20046;-64
2022/05/02 09:49:47;;;;;;;16.77;10.35;;;14.00;95.20;;;;;;4949076;29;20430;-64
2022/05/02 09:52:25;;;;;;;15.68;11.27;;;14.00;98.70;;;;;;4941848;29;20086;-64
2022/05/02 09:58:13;;;;;;;18.98;10.35;;;14.20;99.90;;;;;;4949114;28;20055;-64
2022/05/02 10:01:06;;;;;;;15.65;11.13;;;14.30;99.60;;;;;;4941453;29;20114;-65
2022/05/02 10:03:40;;;;;;;18.55;11.07;;;14.50;96.70;;;;;;4952372;28;20106;-65
2022/05/02 10:06:23;;;;;;;14.70;11.10;;;14.60;98.60;;;;;;4953851;29;20075;-65
2022/05/02 10:09:51;;;;;;;16.08;11.68;;;14.90;98.90;;;;;;4939409;29;20110;-65
2022/05/02 10:12:37;;;;;;;15.90;10.88;;;14.90;95.60;;;;;;4910368;28;20561;-64
2022/05/02 10:15:41;;;;;;;16.73;11.00;;;14.80;97.80;;;;;;4945694;29;20198;-65
2022/05/02 10:18:16;;;;;;;16.40;11.32;;;15.00;98.20;;;;;;4944802;28;20075;-64
2022/05/02 10:21:09;;;;;;;17.88;10.98;;;15.10;99.80;;;;;;4951258;28;20490;-64
2022/05/02 10:23:54;;;;;;;17.35;11.43;;;15.20;97.80;;;;;;4942940;28;20395;-65
2022/05/02 10:26:49;;;;;;;15.68;11.55;;;15.20;98.60;;;;;;4935109;29;20043;-64
2022/05/02 10:30:08;;;;;;;16.02;12.27;;;15.40;99.00;;;;;;4945927;29;20052;-64
2022/05/02 10:32:45;;;;;;;19.15;11.25;;;15.50;90.40;;;;;;4912281;29;20056;-64
2022/05/02 10:35:15;;;;;;;19.33;11.70;;;15.40;93.50;;;;;;4935834;29;20474;-64
2022/05/02 10:37:53;;;;;;;20.73;11.63;;;15.40;94.10;;;;;;4952272;29;20043;-64
2022/05/02 10:40:28;;;;;;;18.45;11.30;;;15.40;96.70;;;;;;4952217;28;20098;-64
2022/05/02 10:42:57;;;;;;;16.80;11.98;;;15.50;94.70;;;;;;4941261;29;20039;-64
2022/05/02 10:45:26;;;;;;;19.60;13.13;;;15.50;97.00;;;;;;4947648;28;20028;-64
2022/05/02 10:47:59;;;;;;;18.80;12.82;;;15.90;98.30;;;;;;4952627;28;20047;-64
2022/05/02 10:50:26;;;;;;;26.27;12.55;;;16.20;96.20;;;;;;4953047;29;20054;-64
2022/05/02 10:53:08;;;;;;;16.50;12.00;;;16.20;97.10;;;;;;4938147;28;20079;-65
2022/05/02 10:55:38;;;;;;;14.50;12.00;;;16.20;96.60;;;;;;4949733;28;20118;-64
2022/05/02 10:58:06;;;;;;;16.40;11.23;;;16.40;93.90;;;;;;4951894;28;20056;-64
2022/05/02 11:00:33;;;;;;;13.35;11.13;;;16.30;95.20;;;;;;4945928;29;20047;-64
2022/05/02 11:03:01;;;;;;;16.15;11.35;;;16.20;94.40;;;;;;4951230;28;20035;-64
2022/05/02 11:05:31;;;;;;;15.73;11.80;;;16.30;96.10;;;;;;4955483;28;20054;-64
2022/05/02 11:08:04;;;;;;;17.48;12.00;;;16.30;95.40;;;;;;4935773;29;20509;-64
2022/05/02 11:10:54;;;;;;;15.82;11.77;;;16.50;87.30;;;;;;4948114;29;20043;-64
2022/05/02 11:13:35;;;;;;;18.23;12.63;;;16.60;94.20;;;;;;4945693;29;20051;-65
2022/05/02 11:16:17;;;;;;;16.88;12.57;;;16.80;92.80;;;;;;4949588;28;20844;-65
2022/05/02 11:22:08;;;;;;;14.52;10.65;;;16.70;93.20;;;;;;4953549;28;20044;-65
2022/05/02 11:24:46;;;;;;;15.65;11.38;;;16.70;94.60;;;;;;4941768;29;20040;-64
2022/05/02 11:27:27;;;;;;;16.73;11.30;;;16.70;92.30;;;;;;4949065;29;20031;-65
2022/05/02 11:30:02;;;;;;;16.67;11.45;;;16.70;85.20;;;;;;4956201;29;20509;-65
2022/05/02 11:32:38;;;;;;;17.98;12.07;;;16.70;91.50;;;;;;4949056;28;20047;-65
2022/05/02 11:35:28;;;;;;;18.55;12.73;;;17.00;93.30;;;;;;4955072;28;20039;-64
2022/05/02 11:38:09;;;;;;;17.25;12.07;;;17.10;85.80;;;;;;4954555;28;20426;-64
2022/05/02 11:40:46;;;;;;;19.13;12.57;;;17.20;91.30;;;;;;4956455;29;20487;-65
2022/05/02 11:43:15;;;;;;;16.15;11.68;;;17.30;88.70;;;;;;4948139;28;20038;-65
2022/05/02 11:45:43;;;;;;;17.63;12.77;;;17.40;90.00;;;;;;4953389;29;20066;-65
2022/05/02 11:48:45;;;;;;;16.33;12.70;;;17.50;91.60;;;;;;4940707;28;20050;-64
2022/05/02 11:51:34;;;;;;;19.63;13.13;;;17.60;90.30;;;;;;4936892;29;20044;-65
2022/05/02 11:54:07;;;;;;;19.83;12.65;;;17.70;92.10;;;;;;4952485;28;20043;-64
2022/05/02 11:56:41;;;;;;;13.85;10.20;;;18.00;81.80;;;;;;4955783;28;20035;-64
2022/05/02 11:59:16;;;;;;;17.05;10.85;;;17.60;62.80;;;;;;4955778;29;20051;-64
2022/05/02 12:01:49;;;;;;;15.25;10.95;;;17.50;71.10;;;;;;4948812;29;20090;-65
2022/05/02 12:04:19;;;;;;;15.02;10.60;;;17.50;70.20;;;;;;4948577;28;20035;-65
2022/05/02 12:06:59;;;;;;;13.30;10.57;;;17.70;83.10;;;;;;4946604;28;20071;-64
2022/05/02 12:09:24;;;;;;;15.55;10.27;;;17.80;81.90;;;;;;4953254;28;20043;-65
2022/05/02 12:11:55;;;;;;;14.88;10.88;;;18.20;91.80;;;;;;4948651;29;20054;-65
2022/05/02 12:14:21;;;;;;;15.70;10.50;;;18.40;72.70;;;;;;4937239;29;20071;-64
2022/05/02 12:17:02;;;;;;;12.73;9.82;;;18.50;89.50;;;;;;4952581;29;20047;-64
2022/05/02 12:19:33;;;;;;;14.43;10.93;;;18.40;73.10;;;;;;4951733;28;20271;-65
2022/05/02 12:22:02;;;;;;;18.52;10.73;;;18.30;68.40;;;;;;4944102;28;20114;-65
2022/05/02 12:24:33;;;;;;;13.60;11.20;;;18.60;76.10;;;;;;4941022;29;20122;-65
2022/05/02 12:26:59;;;;;;;14.30;11.02;;;18.70;82.10;;;;;;4945577;29;20413;-64
2022/05/02 12:29:26;;;;;;;13.70;10.38;;;18.80;83.10;;;;;;4945259;29;20069;-64
2022/05/02 12:32:02;;;;;;;14.40;10.55;;;18.80;67.30;;;;;;4954045;29;20051;-64
2022/05/02 12:34:36;;;;;;;14.65;9.35;;;18.90;69.30;;;;;;4955124;28;20039;-65
2022/05/02 12:37:30;;;;;;;14.38;9.20;;;19.00;68.90;;;;;;4944271;28;20474;-65
2022/05/02 12:40:09;;;;;;;15.25;9.63;;;19.10;61.30;;;;;;4939063;29;20130;-65
2022/05/02 12:42:44;;;;;;;10.85;8.75;;;19.20;64.90;;;;;;4948083;29;20056;-64
2022/05/02 12:45:13;;;;;;;14.82;10.15;;;19.30;62.50;;;;;;4948142;29;20050;-64
2022/05/02 12:47:51;;;;;;;11.75;10.18;;;19.30;67.20;;;;;;4953381;28;20175;-65
2022/05/02 12:50:21;;;;;;;15.75;10.43;;;19.40;66.40;;;;;;4950176;29;20066;-64
2022/05/02 12:52:55;;;;;;;13.23;9.63;;;19.60;64.30;;;;;;4954039;28;20490;-65
2022/05/02 12:55:29;;;;;;;16.83;9.88;;;19.70;68.60;;;;;;4952921;28;20498;-65
2022/05/02 13:00:47;;;;;;;17.20;10.07;;;19.80;64.10;;;;;;4954482;28;20490;-64
2022/05/02 13:03:12;;;;;;;;;;;19.80;65.50;;;;;;4954962;29;20086;-64
2022/05/02 13:06:12;;;;;;;15.93;10.35;;;19.90;54.90;;;;;;4939762;28;19930;-65
2022/05/02 13:08:41;;;;;;;12.50;9.18;;;20.10;59.20;;;;;;4941027;28;20078;-64
2022/05/02 13:11:22;;;;;;;13.18;9.15;;;20.00;59.50;;;;;;4953916;28;20088;-64
2022/05/02 13:13:49;;;;;;;13.02;9.35;;;19.70;54.70;;;;;;4944398;28;20054;-64
2022/05/02 13:16:16;;;;;;;12.55;9.23;;;19.80;63.40;;;;;;4953097;28;20486;-65
2022/05/02 13:18:47;;;;;;;12.15;8.82;;;20.00;60.90;;;;;;4939133;28;20394;-64
2022/05/02 13:21:14;;;;;;;11.80;8.50;;;20.30;63.40;;;;;;4942125;28;20075;-64
2022/05/02 13:23:51;;;;;;;10.77;7.97;;;20.60;66.40;;;;;;4952604;28;20291;-65
2022/05/02 13:26:37;;;;;;;12.00;8.18;;;20.60;59.10;;;;;;4946981;28;20090;-65
2022/05/02 13:29:22;;;;;;;13.90;7.97;;;20.00;52.30;;;;;;4938485;29;20053;-64
2022/05/02 13:32:02;;;;;;;10.35;8.00;;;19.30;55.40;;;;;;4940639;28;20491;-65
2022/05/02 13:34:31;;;;;;;11.77;7.67;;;19.50;63.50;;;;;;4947848;28;20181;-65
2022/05/02 13:37:21;;;;;;;11.88;8.00;;;19.90;62.60;;;;;;4941593;28;20725;-64
2022/05/02 13:40:11;;;;;;;12.38;8.10;;;20.20;58.00;;;;;;4950675;29;20055;-65
2022/05/02 13:42:51;;;;;;;11.52;8.63;;;20.50;56.10;;;;;;4941593;29;20410;-65
2022/05/02 13:45:30;;;;;;;9.60;7.70;;;20.70;57.90;;;;;;4953050;28;20378;-64
2022/05/02 13:48:32;;;;;;;8.65;5.88;;;20.90;59.00;;;;;;4942586;29;20130;-64
2022/05/02 13:51:01;;;;;;;10.88;7.47;;;20.80;53.90;;;;;;4953498;28;20568;-64